sensor_id;sensor_type;location;lat;lon;timestamp;temperature;humidity
47626;DHT22;33342;45.574;9.252;2023-04-24T00:01:49;17.30;99.90
47626;DHT22;33342;45.574;9.252;2023-04-24T00:04:17;17.20;99.90
47626;DHT22;33342;45.574;9.252;2023-04-24T00:06:44;17.20;99.90
47626;DHT22;33342;45.574;9.252;2023-04-24T00:09:16;17.20;99.90
47626;DHT22;33342;45.574;9.252;2023-04-24T00:11:43;17.20;99.90
47626;DHT22;33342;45.574;9.252;2023-04-24T00:14:10;17.20;99.90
47626;DHT22;33342;45.574;9.252;2023-04-24T00:16:37;17.20;99.90
47626;DHT22;33342;45.574;9.252;2023-04-24T00:19:04;17.20;99.90
47626;DHT22;33342;45.574;9.252;2023-04-24T00:21:32;17.20;99.90
47626;DHT22;33342;45.574;9.252;2023-04-24T00:23:59;17.30;99.90
47626;DHT22;33342;45.574;9.252;2023-04-24T00:26:26;17.20;99.90
47626;DHT22;33342;45.574;9.252;2023-04-24T00:28:53;17.20;99.90
47626;DHT22;33342;45.574;9.252;2023-04-24T00:31:20;17.10;99.90
47626;DHT22;33342;45.574;9.252;2023-04-24T00:33:47;17.00;99.90
47626;DHT22;33342;45.574;9.252;2023-04-24T00:36:14;16.90;99.90
47626;DHT22;33342;45.574;9.252;2023-04-24T00:38:41;16.80;99.90
47626;DHT22;33342;45.574;9.252;2023-04-24T00:41:09;16.70;99.90
47626;DHT22;33342;45.574;9.252;2023-04-24T00:43:36;16.70;99.90
47626;DHT22;33342;45.574;9.252;2023-04-24T00:46:03;16.70;99.90
47626;DHT22;33342;45.574;9.252;2023-04-24T00:48:30;16.60;99.90
47626;DHT22;33342;45.574;9.252;2023-04-24T00:50:58;16.60;99.90
47626;DHT22;33342;45.574;9.252;2023-04-24T00:53:25;16.60;99.90
47626;DHT22;33342;45.574;9.252;2023-04-24T00:55:52;16.70;99.90
47626;DHT22;33342;45.574;9.252;2023-04-24T00:58:19;16.70;99.90
47626;DHT22;33342;45.574;9.252;2023-04-24T01:00:48;16.70;99.90
47626;DHT22;33342;45.574;9.252;2023-04-24T01:03:16;16.80;99.90
47626;DHT22;33342;45.574;9.252;2023-04-24T01:05:43;16.80;99.90
47626;DHT22;33342;45.574;9.252;2023-04-24T01:08:10;16.70;99.90
47626;DHT22;33342;45.574;9.252;2023-04-24T01:10:38;16.70;99.90
47626;DHT22;33342;45.574;9.252;2023-04-24T01:13:08;16.60;99.90
47626;DHT22;33342;45.574;9.252;2023-04-24T01:15:35;16.60;99.90
47626;DHT22;33342;45.574;9.252;2023-04-24T01:18:03;16.60;99.90
47626;DHT22;33342;45.574;9.252;2023-04-24T01:20:30;16.60;99.90
47626;DHT22;33342;45.574;9.252;2023-04-24T01:22:58;16.60;99.90
47626;DHT22;33342;45.574;9.252;2023-04-24T01:25:26;16.70;99.90
47626;DHT22;33342;45.574;9.252;2023-04-24T01:27:56;16.70;99.90
47626;DHT22;33342;45.574;9.252;2023-04-24T01:30:23;16.70;99.90
47626;DHT22;33342;45.574;9.252;2023-04-24T01:32:51;16.80;99.90
47626;DHT22;33342;45.574;9.252;2023-04-24T01:35:19;16.80;99.90
47626;DHT22;33342;45.574;9.252;2023-04-24T01:37:46;16.80;99.90
47626;DHT22;33342;45.574;9.252;2023-04-24T01:40:14;16.90;99.90
47626;DHT22;33342;45.574;9.252;2023-04-24T01:42:41;16.90;99.90
47626;DHT22;33342;45.574;9.252;2023-04-24T01:45:11;16.90;99.90
47626;DHT22;33342;45.574;9.252;2023-04-24T01:47:39;16.90;99.90
47626;DHT22;33342;45.574;9.252;2023-04-24T01:50:06;17.00;99.90
47626;DHT22;33342;45.574;9.252;2023-04-24T01:52:34;17.00;99.90
47626;DHT22;33342;45.574;9.252;2023-04-24T01:55:04;17.00;99.90
47626;DHT22;33342;45.574;9.252;2023-04-24T01:57:31;17.00;99.90
47626;DHT22;33342;45.574;9.252;2023-04-24T01:59:59;17.00;99.90
47626;DHT22;33342;45.574;9.252;2023-04-24T02:02:28;17.10;99.90
47626;DHT22;33342;45.574;9.252;2023-04-24T02:04:57;17.10;99.90
47626;DHT22;33342;45.574;9.252;2023-04-24T02:07:24;17.00;99.90
47626;DHT22;33342;45.574;9.252;2023-04-24T02:09:51;17.00;99.90
47626;DHT22;33342;45.574;9.252;2023-04-24T02:12:18;17.00;99.90
47626;DHT22;33342;45.574;9.252;2023-04-24T02:14:45;17.00;99.90
47626;DHT22;33342;45.574;9.252;2023-04-24T02:17:12;16.90;99.90
47626;DHT22;33342;45.574;9.252;2023-04-24T02:19:40;16.90;99.90
47626;DHT22;33342;45.574;9.252;2023-04-24T02:22:09;17.00;99.90
47626;DHT22;33342;45.574;9.252;2023-04-24T02:24:38;17.00;99.90
47626;DHT22;33342;45.574;9.252;2023-04-24T02:27:06;17.00;99.90
47626;DHT22;33342;45.574;9.252;2023-04-24T02:29:33;17.00;99.90
47626;DHT22;33342;45.574;9.252;2023-04-24T02:32:00;17.00;99.90
47626;DHT22;33342;45.574;9.252;2023-04-24T02:34:27;17.00;99.90
47626;DHT22;33342;45.574;9.252;2023-04-24T02:36:54;17.00;99.90
47626;DHT22;33342;45.574;9.252;2023-04-24T02:39:21;17.00;99.90
47626;DHT22;33342;45.574;9.252;2023-04-24T02:41:48;17.00;99.90
47626;DHT22;33342;45.574;9.252;2023-04-24T02:44:15;17.00;99.90
47626;DHT22;33342;45.574;9.252;2023-04-24T02:46:44;17.00;99.90
47626;DHT22;33342;45.574;9.252;2023-04-24T02:49:11;16.90;99.90
47626;DHT22;33342;45.574;9.252;2023-04-24T02:51:38;16.90;99.90
47626;DHT22;33342;45.574;9.252;2023-04-24T02:54:08;16.90;99.90
47626;DHT22;33342;45.574;9.252;2023-04-24T02:56:37;16.90;99.90
47626;DHT22;33342;45.574;9.252;2023-04-24T02:59:05;16.90;99.90
47626;DHT22;33342;45.574;9.252;2023-04-24T03:01:33;16.80;99.90
47626;DHT22;33342;45.574;9.252;2023-04-24T03:04:00;16.80;99.90
47626;DHT22;33342;45.574;9.252;2023-04-24T03:06:27;16.80;99.90
47626;DHT22;33342;45.574;9.252;2023-04-24T03:08:54;16.80;99.90
47626;DHT22;33342;45.574;9.252;2023-04-24T03:11:21;16.70;99.90
47626;DHT22;33342;45.574;9.252;2023-04-24T03:13:48;16.70;99.90
47626;DHT22;33342;45.574;9.252;2023-04-24T03:16:15;16.70;99.90
47626;DHT22;33342;45.574;9.252;2023-04-24T03:18:42;16.70;99.90
47626;DHT22;33342;45.574;9.252;2023-04-24T03:21:09;16.60;99.90
47626;DHT22;33342;45.574;9.252;2023-04-24T03:23:36;16.60;99.90
47626;DHT22;33342;45.574;9.252;2023-04-24T03:26:04;16.60;99.90
47626;DHT22;33342;45.574;9.252;2023-04-24T03:28:32;16.60;99.90
47626;DHT22;33342;45.574;9.252;2023-04-24T03:31:03;16.50;99.90
47626;DHT22;33342;45.574;9.252;2023-04-24T03:33:34;16.50;99.90
47626;DHT22;33342;45.574;9.252;2023-04-24T03:36:03;16.50;99.90
47626;DHT22;33342;45.574;9.252;2023-04-24T03:38:38;16.50;99.90
47626;DHT22;33342;45.574;9.252;2023-04-24T03:41:18;16.40;99.90
47626;DHT22;33342;45.574;9.252;2023-04-24T03:43:49;16.40;99.90
47626;DHT22;33342;45.574;9.252;2023-04-24T03:46:16;16.40;99.90
47626;DHT22;33342;45.574;9.252;2023-04-24T03:48:52;16.40;99.90
47626;DHT22;33342;45.574;9.252;2023-04-24T03:51:24;16.40;99.90
47626;DHT22;33342;45.574;9.252;2023-04-24T03:53:54;16.40;99.90
47626;DHT22;33342;45.574;9.252;2023-04-24T03:56:23;16.30;99.90
47626;DHT22;33342;45.574;9.252;2023-04-24T03:58:50;16.30;99.90
47626;DHT22;33342;45.574;9.252;2023-04-24T04:01:17;16.30;99.90
47626;DHT22;33342;45.574;9.252;2023-04-24T04:03:50;16.30;99.90
47626;DHT22;33342;45.574;9.252;2023-04-24T04:06:21;16.30;99.90
47626;DHT22;33342;45.574;9.252;2023-04-24T04:08:50;16.20;99.90
47626;DHT22;33342;45.574;9.252;2023-04-24T04:11:17;16.20;99.90
47626;DHT22;33342;45.574;9.252;2023-04-24T04:13:45;16.20;99.90
47626;DHT22;33342;45.574;9.252;2023-04-24T04:16:17;16.20;99.90
47626;DHT22;33342;45.574;9.252;2023-04-24T04:18:45;16.20;99.90
47626;DHT22;33342;45.574;9.252;2023-04-24T04:21:12;16.20;99.90
47626;DHT22;33342;45.574;9.252;2023-04-24T04:23:40;16.20;99.90
47626;DHT22;33342;45.574;9.252;2023-04-24T04:26:13;16.20;99.90
47626;DHT22;33342;45.574;9.252;2023-04-24T04:28:56;16.20;99.90
47626;DHT22;33342;45.574;9.252;2023-04-24T04:31:23;16.20;99.90
47626;DHT22;33342;45.574;9.252;2023-04-24T04:33:50;16.10;99.90
47626;DHT22;33342;45.574;9.252;2023-04-24T04:36:17;16.10;99.90
47626;DHT22;33342;45.574;9.252;2023-04-24T04:38:49;16.10;99.90
47626;DHT22;33342;45.574;9.252;2023-04-24T04:41:33;16.10;99.90
47626;DHT22;33342;45.574;9.252;2023-04-24T04:44:02;16.10;99.90
47626;DHT22;33342;45.574;9.252;2023-04-24T04:46:32;16.10;99.90
47626;DHT22;33342;45.574;9.252;2023-04-24T04:49:08;16.00;99.90
47626;DHT22;33342;45.574;9.252;2023-04-24T04:51:35;16.00;99.90
47626;DHT22;33342;45.574;9.252;2023-04-24T04:54:02;16.00;99.90
47626;DHT22;33342;45.574;9.252;2023-04-24T04:56:29;16.00;99.90
47626;DHT22;33342;45.574;9.252;2023-04-24T04:58:59;16.00;99.90
47626;DHT22;33342;45.574;9.252;2023-04-24T05:01:26;16.00;99.90
47626;DHT22;33342;45.574;9.252;2023-04-24T05:03:55;15.90;99.90
47626;DHT22;33342;45.574;9.252;2023-04-24T05:06:22;15.90;99.90
47626;DHT22;33342;45.574;9.252;2023-04-24T05:08:50;15.90;99.90
47626;DHT22;33342;45.574;9.252;2023-04-24T05:11:29;15.90;99.90
47626;DHT22;33342;45.574;9.252;2023-04-24T05:13:58;15.90;99.90
47626;DHT22;33342;45.574;9.252;2023-04-24T05:16:33;15.90;99.90
47626;DHT22;33342;45.574;9.252;2023-04-24T05:19:01;16.00;99.90
47626;DHT22;33342;45.574;9.252;2023-04-24T05:21:33;15.90;99.90
47626;DHT22;33342;45.574;9.252;2023-04-24T05:24:00;15.90;99.90
47626;DHT22;33342;45.574;9.252;2023-04-24T05:26:45;15.90;99.90
47626;DHT22;33342;45.574;9.252;2023-04-24T05:29:15;15.90;99.90
47626;DHT22;33342;45.574;9.252;2023-04-24T05:31:42;15.90;99.90
47626;DHT22;33342;45.574;9.252;2023-04-24T05:34:10;15.90;99.90
47626;DHT22;33342;45.574;9.252;2023-04-24T05:36:40;15.90;99.90
47626;DHT22;33342;45.574;9.252;2023-04-24T05:39:08;15.80;99.90
47626;DHT22;33342;45.574;9.252;2023-04-24T05:41:35;15.80;99.90
47626;DHT22;33342;45.574;9.252;2023-04-24T05:44:02;15.80;99.90
47626;DHT22;33342;45.574;9.252;2023-04-24T05:46:29;15.70;99.90
47626;DHT22;33342;45.574;9.252;2023-04-24T05:48:56;15.70;99.90
47626;DHT22;33342;45.574;9.252;2023-04-24T05:51:23;15.60;99.90
47626;DHT22;33342;45.574;9.252;2023-04-24T05:53:50;15.70;99.90
47626;DHT22;33342;45.574;9.252;2023-04-24T05:56:18;15.60;99.90
47626;DHT22;33342;45.574;9.252;2023-04-24T05:58:45;15.70;99.90
47626;DHT22;33342;45.574;9.252;2023-04-24T06:01:13;15.70;99.90
47626;DHT22;33342;45.574;9.252;2023-04-24T06:03:47;15.70;99.90
47626;DHT22;33342;45.574;9.252;2023-04-24T06:06:14;15.80;99.90
47626;DHT22;33342;45.574;9.252;2023-04-24T06:08:42;15.80;99.90
47626;DHT22;33342;45.574;9.252;2023-04-24T06:11:10;15.80;99.90
47626;DHT22;33342;45.574;9.252;2023-04-24T06:13:38;15.80;99.90
47626;DHT22;33342;45.574;9.252;2023-04-24T06:16:24;15.80;99.90
47626;DHT22;33342;45.574;9.252;2023-04-24T06:18:58;15.80;99.90
47626;DHT22;33342;45.574;9.252;2023-04-24T06:21:25;15.80;99.90
47626;DHT22;33342;45.574;9.252;2023-04-24T06:23:52;15.90;99.90
47626;DHT22;33342;45.574;9.252;2023-04-24T06:26:19;15.90;99.90
47626;DHT22;33342;45.574;9.252;2023-04-24T06:28:46;15.90;99.90
47626;DHT22;33342;45.574;9.252;2023-04-24T06:31:13;15.90;99.90
47626;DHT22;33342;45.574;9.252;2023-04-24T06:33:40;16.00;99.90
47626;DHT22;33342;45.574;9.252;2023-04-24T06:36:09;16.00;99.90
47626;DHT22;33342;45.574;9.252;2023-04-24T06:38:36;15.90;99.90
47626;DHT22;33342;45.574;9.252;2023-04-24T06:41:03;16.00;99.90
47626;DHT22;33342;45.574;9.252;2023-04-24T06:43:31;15.90;99.90
47626;DHT22;33342;45.574;9.252;2023-04-24T06:46:00;15.90;99.90
47626;DHT22;33342;45.574;9.252;2023-04-24T06:48:27;16.00;99.90
47626;DHT22;33342;45.574;9.252;2023-04-24T06:50:54;16.00;99.90
47626;DHT22;33342;45.574;9.252;2023-04-24T06:53:20;16.00;99.90
47626;DHT22;33342;45.574;9.252;2023-04-24T06:55:47;16.00;99.90
47626;DHT22;33342;45.574;9.252;2023-04-24T06:58:15;16.00;99.90
47626;DHT22;33342;45.574;9.252;2023-04-24T07:00:42;16.10;99.90
47626;DHT22;33342;45.574;9.252;2023-04-24T07:03:09;16.10;99.90
47626;DHT22;33342;45.574;9.252;2023-04-24T07:05:37;16.10;99.90
47626;DHT22;33342;45.574;9.252;2023-04-24T07:08:04;16.10;99.90
47626;DHT22;33342;45.574;9.252;2023-04-24T07:10:33;16.20;99.90
47626;DHT22;33342;45.574;9.252;2023-04-24T07:13:02;16.20;99.90
47626;DHT22;33342;45.574;9.252;2023-04-24T07:15:29;16.20;99.90
47626;DHT22;33342;45.574;9.252;2023-04-24T07:17:57;16.20;99.90
47626;DHT22;33342;45.574;9.252;2023-04-24T07:20:24;16.20;99.90
47626;DHT22;33342;45.574;9.252;2023-04-24T07:22:51;16.20;99.90
47626;DHT22;33342;45.574;9.252;2023-04-24T07:25:20;16.20;99.90
47626;DHT22;33342;45.574;9.252;2023-04-24T07:27:47;16.30;99.90
47626;DHT22;33342;45.574;9.252;2023-04-24T07:30:16;16.30;99.90
47626;DHT22;33342;45.574;9.252;2023-04-24T07:32:43;16.20;99.90
47626;DHT22;33342;45.574;9.252;2023-04-24T07:35:10;16.30;99.90
47626;DHT22;33342;45.574;9.252;2023-04-24T07:37:37;16.20;99.90
47626;DHT22;33342;45.574;9.252;2023-04-24T07:40:04;16.30;99.90
47626;DHT22;33342;45.574;9.252;2023-04-24T07:42:31;16.30;99.90
47626;DHT22;33342;45.574;9.252;2023-04-24T07:44:58;16.30;99.90
47626;DHT22;33342;45.574;9.252;2023-04-24T07:47:26;16.40;99.90
47626;DHT22;33342;45.574;9.252;2023-04-24T07:49:53;16.40;99.90
47626;DHT22;33342;45.574;9.252;2023-04-24T07:52:20;16.30;99.90
47626;DHT22;33342;45.574;9.252;2023-04-24T07:54:47;16.40;99.90
47626;DHT22;33342;45.574;9.252;2023-04-24T07:57:14;16.40;99.90
47626;DHT22;33342;45.574;9.252;2023-04-24T07:59:42;16.40;99.90
47626;DHT22;33342;45.574;9.252;2023-04-24T08:02:09;16.40;99.90
47626;DHT22;33342;45.574;9.252;2023-04-24T08:04:36;16.50;99.90
47626;DHT22;33342;45.574;9.252;2023-04-24T08:07:03;16.50;99.90
47626;DHT22;33342;45.574;9.252;2023-04-24T08:09:30;16.50;99.90
47626;DHT22;33342;45.574;9.252;2023-04-24T08:11:58;16.50;99.90
47626;DHT22;33342;45.574;9.252;2023-04-24T08:14:25;16.60;99.90
47626;DHT22;33342;45.574;9.252;2023-04-24T08:16:54;16.60;99.90
47626;DHT22;33342;45.574;9.252;2023-04-24T08:19:22;16.60;99.90
47626;DHT22;33342;45.574;9.252;2023-04-24T08:21:49;16.70;99.90
47626;DHT22;33342;45.574;9.252;2023-04-24T08:24:16;16.60;99.90
47626;DHT22;33342;45.574;9.252;2023-04-24T08:26:43;16.60;99.90
47626;DHT22;33342;45.574;9.252;2023-04-24T08:29:10;16.70;99.90
47626;DHT22;33342;45.574;9.252;2023-04-24T08:31:37;16.70;99.90
47626;DHT22;33342;45.574;9.252;2023-04-24T08:34:04;16.70;99.90
47626;DHT22;33342;45.574;9.252;2023-04-24T08:36:32;16.60;99.90
47626;DHT22;33342;45.574;9.252;2023-04-24T08:39:13;16.70;99.90
47626;DHT22;33342;45.574;9.252;2023-04-24T08:41:42;16.70;99.90
47626;DHT22;33342;45.574;9.252;2023-04-24T08:44:10;16.80;99.90
47626;DHT22;33342;45.574;9.252;2023-04-24T08:46:37;16.80;99.90
47626;DHT22;33342;45.574;9.252;2023-04-24T08:49:04;16.70;99.90
47626;DHT22;33342;45.574;9.252;2023-04-24T08:51:31;16.80;99.90
47626;DHT22;33342;45.574;9.252;2023-04-24T08:53:58;16.80;99.90
47626;DHT22;33342;45.574;9.252;2023-04-24T08:56:26;16.80;99.90
47626;DHT22;33342;45.574;9.252;2023-04-24T08:58:54;16.80;99.90
47626;DHT22;33342;45.574;9.252;2023-04-24T09:01:23;16.90;99.90
47626;DHT22;33342;45.574;9.252;2023-04-24T09:03:52;16.90;99.90
47626;DHT22;33342;45.574;9.252;2023-04-24T09:06:21;16.90;99.90
47626;DHT22;33342;45.574;9.252;2023-04-24T09:08:50;16.90;99.90
47626;DHT22;33342;45.574;9.252;2023-04-24T09:11:18;17.00;99.90
47626;DHT22;33342;45.574;9.252;2023-04-24T09:13:45;17.00;99.90
47626;DHT22;33342;45.574;9.252;2023-04-24T09:16:13;17.00;99.90
47626;DHT22;33342;45.574;9.252;2023-04-24T09:18:41;17.10;99.90
47626;DHT22;33342;45.574;9.252;2023-04-24T09:21:09;17.10;99.90
47626;DHT22;33342;45.574;9.252;2023-04-24T09:23:36;17.10;99.90
47626;DHT22;33342;45.574;9.252;2023-04-24T09:26:03;17.10;99.90
47626;DHT22;33342;45.574;9.252;2023-04-24T09:28:39;17.20;99.90
47626;DHT22;33342;45.574;9.252;2023-04-24T09:31:11;17.20;99.90
47626;DHT22;33342;45.574;9.252;2023-04-24T09:33:38;17.20;99.90
47626;DHT22;33342;45.574;9.252;2023-04-24T09:36:05;17.20;99.90
47626;DHT22;33342;45.574;9.252;2023-04-24T09:38:37;17.30;99.90
47626;DHT22;33342;45.574;9.252;2023-04-24T09:41:06;17.30;99.90
47626;DHT22;33342;45.574;9.252;2023-04-24T09:43:34;17.30;99.90
47626;DHT22;33342;45.574;9.252;2023-04-24T09:46:06;17.30;99.90
47626;DHT22;33342;45.574;9.252;2023-04-24T09:48:38;17.40;99.90
47626;DHT22;33342;45.574;9.252;2023-04-24T09:51:06;17.40;99.90
47626;DHT22;33342;45.574;9.252;2023-04-24T09:53:33;17.40;99.90
47626;DHT22;33342;45.574;9.252;2023-04-24T09:56:10;17.50;99.90
47626;DHT22;33342;45.574;9.252;2023-04-24T09:58:39;17.50;99.90
47626;DHT22;33342;45.574;9.252;2023-04-24T10:01:06;17.50;99.90
47626;DHT22;33342;45.574;9.252;2023-04-24T10:03:35;17.50;99.90
47626;DHT22;33342;45.574;9.252;2023-04-24T10:06:03;17.60;99.90
47626;DHT22;33342;45.574;9.252;2023-04-24T10:08:36;17.60;99.90
47626;DHT22;33342;45.574;9.252;2023-04-24T10:11:04;17.60;99.90
47626;DHT22;33342;45.574;9.252;2023-04-24T10:13:32;17.60;99.90
47626;DHT22;33342;45.574;9.252;2023-04-24T10:16:00;17.70;99.90
47626;DHT22;33342;45.574;9.252;2023-04-24T10:18:29;17.70;99.90
47626;DHT22;33342;45.574;9.252;2023-04-24T10:20:56;17.70;99.90
47626;DHT22;33342;45.574;9.252;2023-04-24T10:23:25;17.80;99.90
47626;DHT22;33342;45.574;9.252;2023-04-24T10:25:52;17.80;99.90
47626;DHT22;33342;45.574;9.252;2023-04-24T10:28:20;17.80;99.90
47626;DHT22;33342;45.574;9.252;2023-04-24T10:30:49;17.90;99.90
47626;DHT22;33342;45.574;9.252;2023-04-24T10:33:17;17.90;99.90
47626;DHT22;33342;45.574;9.252;2023-04-24T10:35:47;17.90;99.90
47626;DHT22;33342;45.574;9.252;2023-04-24T10:38:25;18.00;99.90
47626;DHT22;33342;45.574;9.252;2023-04-24T10:41:06;18.00;99.90
47626;DHT22;33342;45.574;9.252;2023-04-24T10:43:35;18.00;99.90
47626;DHT22;33342;45.574;9.252;2023-04-24T10:46:04;18.10;99.90
47626;DHT22;33342;45.574;9.252;2023-04-24T10:48:32;18.10;99.90
47626;DHT22;33342;45.574;9.252;2023-04-24T10:50:59;18.10;99.90
47626;DHT22;33342;45.574;9.252;2023-04-24T10:53:30;18.10;99.90
47626;DHT22;33342;45.574;9.252;2023-04-24T10:56:08;18.20;99.90
47626;DHT22;33342;45.574;9.252;2023-04-24T10:58:50;18.20;99.90
47626;DHT22;33342;45.574;9.252;2023-04-24T11:01:29;18.20;99.90
47626;DHT22;33342;45.574;9.252;2023-04-24T11:03:59;18.30;99.90
47626;DHT22;33342;45.574;9.252;2023-04-24T11:09:03;18.40;99.90
47626;DHT22;33342;45.574;9.252;2023-04-24T11:11:32;18.40;99.90
47626;DHT22;33342;45.574;9.252;2023-04-24T11:16:27;18.40;99.90
47626;DHT22;33342;45.574;9.252;2023-04-24T11:19:09;18.50;99.90
47626;DHT22;33342;45.574;9.252;2023-04-24T11:27:07;18.60;99.90
47626;DHT22;33342;45.574;9.252;2023-04-24T11:35:08;18.70;99.90
47626;DHT22;33342;45.574;9.252;2023-04-24T11:40:08;18.70;99.90
47626;DHT22;33342;45.574;9.252;2023-04-24T11:42:40;18.80;99.90
47626;DHT22;33342;45.574;9.252;2023-04-24T11:47:45;18.90;99.90
47626;DHT22;33342;45.574;9.252;2023-04-24T11:50:18;18.90;99.90
47626;DHT22;33342;45.574;9.252;2023-04-24T11:52:47;19.00;99.90
47626;DHT22;33342;45.574;9.252;2023-04-24T11:57:49;19.00;99.90
47626;DHT22;33342;45.574;9.252;2023-04-24T12:00:18;19.00;99.90
47626;DHT22;33342;45.574;9.252;2023-04-24T12:02:46;19.10;99.90
47626;DHT22;33342;45.574;9.252;2023-04-24T12:05:25;19.10;99.90
47626;DHT22;33342;45.574;9.252;2023-04-24T12:07:53;19.10;99.90
47626;DHT22;33342;45.574;9.252;2023-04-24T12:10:25;19.20;99.90
47626;DHT22;33342;45.574;9.252;2023-04-24T12:12:53;19.20;99.90
47626;DHT22;33342;45.574;9.252;2023-04-24T12:15:21;19.20;99.90
47626;DHT22;33342;45.574;9.252;2023-04-24T12:17:50;19.30;99.90
47626;DHT22;33342;45.574;9.252;2023-04-24T12:20:32;19.30;99.90
47626;DHT22;33342;45.574;9.252;2023-04-24T12:23:00;19.40;99.90
47626;DHT22;33342;45.574;9.252;2023-04-24T12:25:32;19.40;99.90
47626;DHT22;33342;45.574;9.252;2023-04-24T12:30:31;19.50;99.90
47626;DHT22;33342;45.574;9.252;2023-04-24T12:32:59;19.50;99.90
47626;DHT22;33342;45.574;9.252;2023-04-24T12:35:29;19.50;99.90
47626;DHT22;33342;45.574;9.252;2023-04-24T12:38:12;19.60;99.90
47626;DHT22;33342;45.574;9.252;2023-04-24T12:40:41;19.60;99.90
47626;DHT22;33342;45.574;9.252;2023-04-24T12:43:16;19.60;99.90
47626;DHT22;33342;45.574;9.252;2023-04-24T12:45:43;19.70;99.90
47626;DHT22;33342;45.574;9.252;2023-04-24T12:48:11;19.70;99.90
47626;DHT22;33342;45.574;9.252;2023-04-24T12:50:41;19.70;99.90
47626;DHT22;33342;45.574;9.252;2023-04-24T12:53:12;19.80;99.90
47626;DHT22;33342;45.574;9.252;2023-04-24T12:55:39;19.80;99.90
47626;DHT22;33342;45.574;9.252;2023-04-24T12:58:07;19.90;99.90
47626;DHT22;33342;45.574;9.252;2023-04-24T13:00:34;19.90;99.90
47626;DHT22;33342;45.574;9.252;2023-04-24T13:03:01;19.90;99.90
47626;DHT22;33342;45.574;9.252;2023-04-24T13:05:29;20.00;99.90
47626;DHT22;33342;45.574;9.252;2023-04-24T13:07:57;20.00;99.90
47626;DHT22;33342;45.574;9.252;2023-04-24T13:10:24;20.10;99.90
47626;DHT22;33342;45.574;9.252;2023-04-24T13:12:51;20.10;99.90
47626;DHT22;33342;45.574;9.252;2023-04-24T13:15:18;20.20;99.90
47626;DHT22;33342;45.574;9.252;2023-04-24T13:17:45;20.20;99.90
47626;DHT22;33342;45.574;9.252;2023-04-24T13:20:12;20.30;99.90
47626;DHT22;33342;45.574;9.252;2023-04-24T13:22:39;20.30;99.90
47626;DHT22;33342;45.574;9.252;2023-04-24T13:25:07;20.40;99.90
47626;DHT22;33342;45.574;9.252;2023-04-24T13:27:34;20.40;99.90
47626;DHT22;33342;45.574;9.252;2023-04-24T13:30:01;20.50;99.90
47626;DHT22;33342;45.574;9.252;2023-04-24T13:32:28;20.60;99.90
47626;DHT22;33342;45.574;9.252;2023-04-24T13:34:56;20.60;99.90
47626;DHT22;33342;45.574;9.252;2023-04-24T13:37:23;20.60;99.90
47626;DHT22;33342;45.574;9.252;2023-04-24T13:39:50;20.70;99.90
47626;DHT22;33342;45.574;9.252;2023-04-24T13:42:18;20.70;99.90
47626;DHT22;33342;45.574;9.252;2023-04-24T13:44:46;20.80;99.90
47626;DHT22;33342;45.574;9.252;2023-04-24T13:47:14;20.80;99.90
47626;DHT22;33342;45.574;9.252;2023-04-24T13:49:41;20.90;99.90
47626;DHT22;33342;45.574;9.252;2023-04-24T13:52:08;21.00;99.90
47626;DHT22;33342;45.574;9.252;2023-04-24T13:54:37;21.00;99.90
47626;DHT22;33342;45.574;9.252;2023-04-24T13:57:04;21.10;99.90
47626;DHT22;33342;45.574;9.252;2023-04-24T13:59:31;21.20;99.90
47626;DHT22;33342;45.574;9.252;2023-04-24T14:01:58;21.30;99.90
47626;DHT22;33342;45.574;9.252;2023-04-24T14:04:25;21.30;99.90
47626;DHT22;33342;45.574;9.252;2023-04-24T14:06:52;21.40;99.90
47626;DHT22;33342;45.574;9.252;2023-04-24T14:09:19;21.50;99.90
47626;DHT22;33342;45.574;9.252;2023-04-24T14:11:46;21.50;99.90
47626;DHT22;33342;45.574;9.252;2023-04-24T14:14:13;21.60;99.90
47626;DHT22;33342;45.574;9.252;2023-04-24T14:16:40;21.70;99.90
47626;DHT22;33342;45.574;9.252;2023-04-24T14:19:07;21.80;99.90
47626;DHT22;33342;45.574;9.252;2023-04-24T14:21:34;21.80;99.90
47626;DHT22;33342;45.574;9.252;2023-04-24T14:24:01;21.90;99.90
47626;DHT22;33342;45.574;9.252;2023-04-24T14:26:28;22.00;99.90
47626;DHT22;33342;45.574;9.252;2023-04-24T14:28:55;22.10;99.90
47626;DHT22;33342;45.574;9.252;2023-04-24T14:31:39;22.20;99.90
47626;DHT22;33342;45.574;9.252;2023-04-24T14:34:09;22.30;99.90
47626;DHT22;33342;45.574;9.252;2023-04-24T14:36:36;22.40;99.90
47626;DHT22;33342;45.574;9.252;2023-04-24T14:39:04;22.50;99.90
47626;DHT22;33342;45.574;9.252;2023-04-24T14:41:34;22.60;99.90
47626;DHT22;33342;45.574;9.252;2023-04-24T14:44:03;22.70;99.90
47626;DHT22;33342;45.574;9.252;2023-04-24T14:46:30;22.80;99.90
47626;DHT22;33342;45.574;9.252;2023-04-24T14:48:58;22.90;99.90
47626;DHT22;33342;45.574;9.252;2023-04-24T14:51:25;23.00;99.90
47626;DHT22;33342;45.574;9.252;2023-04-24T14:53:52;23.00;99.90
47626;DHT22;33342;45.574;9.252;2023-04-24T14:56:19;23.10;99.90
47626;DHT22;33342;45.574;9.252;2023-04-24T14:58:46;23.20;99.90
47626;DHT22;33342;45.574;9.252;2023-04-24T15:01:13;23.30;99.90
47626;DHT22;33342;45.574;9.252;2023-04-24T15:03:42;23.40;99.90
47626;DHT22;33342;45.574;9.252;2023-04-24T15:06:09;23.50;99.90
47626;DHT22;33342;45.574;9.252;2023-04-24T15:08:36;23.60;99.90
47626;DHT22;33342;45.574;9.252;2023-04-24T15:11:03;23.90;99.90
47626;DHT22;33342;45.574;9.252;2023-04-24T15:13:31;24.30;99.90
47626;DHT22;33342;45.574;9.252;2023-04-24T15:15:58;24.80;99.90
47626;DHT22;33342;45.574;9.252;2023-04-24T15:18:25;25.50;99.90
47626;DHT22;33342;45.574;9.252;2023-04-24T15:20:52;26.20;99.90
47626;DHT22;33342;45.574;9.252;2023-04-24T15:23:19;26.70;99.90
47626;DHT22;33342;45.574;9.252;2023-04-24T15:25:46;27.40;99.90
47626;DHT22;33342;45.574;9.252;2023-04-24T15:28:13;28.00;99.90
47626;DHT22;33342;45.574;9.252;2023-04-24T15:30:42;28.50;99.90
47626;DHT22;33342;45.574;9.252;2023-04-24T15:33:09;29.00;99.90
47626;DHT22;33342;45.574;9.252;2023-04-24T15:35:36;29.30;99.90
47626;DHT22;33342;45.574;9.252;2023-04-24T15:38:03;29.60;99.90
47626;DHT22;33342;45.574;9.252;2023-04-24T15:40:30;30.00;99.90
47626;DHT22;33342;45.574;9.252;2023-04-24T15:42:57;30.30;99.90
47626;DHT22;33342;45.574;9.252;2023-04-24T15:45:24;30.50;99.90
47626;DHT22;33342;45.574;9.252;2023-04-24T15:47:51;30.60;99.90
47626;DHT22;33342;45.574;9.252;2023-04-24T15:50:18;30.70;99.90
47626;DHT22;33342;45.574;9.252;2023-04-24T15:52:48;30.80;99.90
47626;DHT22;33342;45.574;9.252;2023-04-24T15:55:15;30.70;99.90
47626;DHT22;33342;45.574;9.252;2023-04-24T15:57:42;30.60;99.90
47626;DHT22;33342;45.574;9.252;2023-04-24T16:00:10;30.30;99.90
47626;DHT22;33342;45.574;9.252;2023-04-24T16:02:37;30.00;99.90
47626;DHT22;33342;45.574;9.252;2023-04-24T16:05:05;29.70;99.90